Time;durP1;ratioP1;P1;durP2;ratioP2;P2;SDS_P1;SDS_P2;PMS_P1;PMS_P2;Temp;Humidity;BMP_temperature;BMP_pressure;BME280_temperature;BME280_humidity;BME280_pressure;Samples;Min_cycle;Max_cycle;Signal;HPM_P1;HPM_P2
2022/09/30 00:01:40;;;;;;;11.53;4.87;;;;;;;12.19;61.58;96553.50;5031723;28;20437;-72
2022/09/30 00:04:08;;;;;;;6.63;4.77;;;;;;;12.14;61.57;96551.41;5011488;28;20195;-72
2022/09/30 00:06:34;;;;;;;7.53;5.10;;;;;;;12.20;61.69;96547.25;5031393;28;20456;-72
2022/09/30 00:09:01;;;;;;;7.60;5.10;;;;;;;12.25;61.56;96539.66;5010778;28;20459;-73
2022/09/30 00:11:32;;;;;;;10.93;4.60;;;;;;;12.22;61.34;96540.03;5034835;28;20201;-73
2022/09/30 00:13:58;;;;;;;5.83;4.83;;;;;;;12.25;61.72;96547.53;5010862;28;20510;-74
2022/09/30 00:16:27;;;;;;;8.53;4.93;;;;;;;12.31;61.50;96549.44;5026499;28;20595;-74
2022/09/30 00:18:54;;;;;;;6.30;4.90;;;;;;;12.34;61.70;96546.47;5016845;28;20845;-74
2022/09/30 00:21:20;;;;;;;6.93;4.33;;;;;;;12.35;61.85;96550.72;5025365;28;20438;-74
2022/09/30 00:23:46;;;;;;;6.17;4.63;;;;;;;12.36;61.52;96551.53;5014553;28;20431;-73
2022/09/30 00:26:14;;;;;;;5.97;4.70;;;;;;;12.36;61.53;96560.22;5032059;28;20455;-73
2022/09/30 00:28:40;;;;;;;7.27;4.83;;;;;;;12.34;61.92;96550.91;5014978;28;20291;-74
2022/09/30 00:31:09;;;;;;;7.80;5.03;;;;;;;12.36;61.99;96548.91;5020418;28;20466;-74
2022/09/30 00:33:34;;;;;;;5.90;4.40;;;;;;;12.37;62.18;96553.97;5017275;28;20821;-74
2022/09/30 00:36:00;;;;;;;6.87;5.00;;;;;;;12.38;61.91;96560.06;5029450;28;20432;-72
2022/09/30 00:38:26;;;;;;;6.17;5.03;;;;;;;12.42;62.02;96567.41;5019258;28;21313;-73
2022/09/30 00:40:52;;;;;;;9.77;4.93;;;;;;;12.41;61.77;96564.97;5011850;28;20192;-73
2022/09/30 00:43:20;;;;;;;6.20;4.53;;;;;;;12.29;61.87;96567.19;5021189;28;20196;-73
2022/09/30 00:45:54;;;;;;;7.10;5.30;;;;;;;12.28;62.69;96562.94;5021838;28;20184;-73
2022/09/30 00:48:30;;;;;;;6.13;5.40;;;;;;;12.35;62.63;96563.84;5023744;28;20464;-73
2022/09/30 00:50:55;;;;;;;8.30;5.60;;;;;;;12.41;62.27;96567.59;5024592;28;20994;-74
2022/09/30 00:53:26;;;;;;;7.03;5.60;;;;;;;12.47;62.49;96568.69;5026142;28;20424;-74
2022/09/30 00:56:10;;;;;;;9.17;5.43;;;;;;;12.49;62.39;96566.66;5027628;28;20188;-73
2022/09/30 00:58:51;;;;;;;9.07;5.57;;;;;;;12.50;62.46;96570.94;5023363;28;20445;-73
2022/09/30 01:01:18;;;;;;;7.40;5.50;;;;;;;12.51;62.68;96568.16;5033690;28;20431;-72
2022/09/30 01:03:50;;;;;;;5.77;4.67;;;;;;;12.51;62.64;96567.31;5028837;28;20417;-72
2022/09/30 01:06:16;;;;;;;13.77;5.83;;;;;;;12.48;62.39;96567.66;5031902;28;20813;-73
2022/09/30 01:08:42;;;;;;;5.43;4.93;;;;;;;12.46;62.47;96564.44;5027207;28;20835;-73
2022/09/30 01:11:08;;;;;;;8.47;5.00;;;;;;;12.34;62.74;96564.88;5026348;28;20964;-73
2022/09/30 01:13:34;;;;;;;6.13;4.43;;;;;;;12.38;62.51;96562.69;5036278;28;20420;-73
2022/09/30 01:16:16;;;;;;;6.57;4.73;;;;;;;12.39;62.87;96562.50;5035268;28;20564;-74
2022/09/30 01:18:45;;;;;;;7.80;5.00;;;;;;;12.38;62.61;96563.50;5049090;28;20190;-73
2022/09/30 01:21:22;;;;;;;13.47;4.70;;;;;;;12.43;62.69;96570.84;5029477;28;20439;-74
2022/09/30 01:24:10;;;;;;;5.60;4.67;;;;;;;12.46;62.54;96572.31;5038981;28;20432;-73
2022/09/30 01:26:52;;;;;;;6.90;5.30;;;;;;;12.47;62.75;96566.88;5026925;28;20441;-73
2022/09/30 01:29:39;;;;;;;9.70;5.13;;;;;;;12.35;62.63;96582.22;5028861;28;20467;-75
2022/09/30 01:32:22;;;;;;;5.83;5.03;;;;;;;12.41;63.10;96575.47;5037184;28;20421;-74
2022/09/30 01:35:00;;;;;;;5.37;4.87;;;;;;;12.43;62.94;96571.66;5026219;28;20832;-74
2022/09/30 01:37:37;;;;;;;7.77;5.03;;;;;;;12.50;63.12;96570.94;5014690;28;20461;-74
2022/09/30 01:40:12;;;;;;;8.83;5.20;;;;;;;12.55;63.01;96568.59;5030744;28;20470;-75
2022/09/30 01:42:50;;;;;;;5.40;4.90;;;;;;;12.59;63.16;96565.41;5015504;28;20434;-74
2022/09/30 01:45:28;;;;;;;6.40;5.80;;;;;;;12.61;63.20;96567.84;5033952;28;20423;-74
2022/09/30 01:47:58;;;;;;;10.03;5.67;;;;;;;12.63;63.06;96570.31;5000056;28;20451;-73
2022/09/30 01:50:45;;;;;;;8.53;5.50;;;;;;;12.62;63.08;96572.13;5042535;28;20466;-75
2022/09/30 01:53:26;;;;;;;6.30;5.30;;;;;;;12.63;63.42;96580.84;5030988;28;20454;-74
2022/09/30 01:55:56;;;;;;;7.40;5.07;;;;;;;12.63;63.48;96575.59;5033360;28;20435;-74
2022/09/30 01:58:53;;;;;;;11.10;5.13;;;;;;;12.63;63.37;96572.94;5018306;28;20509;-74
2022/09/30 02:01:24;;;;;;;8.10;5.50;;;;;;;12.64;63.02;96585.91;5034101;28;20427;-73
2022/09/30 02:03:57;;;;;;;6.50;5.37;;;;;;;12.63;63.33;96586.91;5021013;28;20466;-73
2022/09/30 02:06:27;;;;;;;6.43;5.23;;;;;;;12.68;63.34;96595.06;5032979;28;20431;-73
2022/09/30 02:08:57;;;;;;;10.80;5.10;;;;;;;12.70;63.48;96594.88;5011637;28;21005;-74
2022/09/30 02:11:26;;;;;;;9.33;5.40;;;;;;;12.67;63.29;96597.88;5030496;28;20538;-74
2022/09/30 02:13:54;;;;;;;5.80;4.83;;;;;;;12.71;63.31;96610.50;5011361;28;21065;-73
2022/09/30 02:16:24;;;;;;;8.13;5.00;;;;;;;12.67;63.56;96603.13;5029651;28;20436;-73
2022/09/30 02:18:54;;;;;;;5.50;4.80;;;;;;;12.61;63.54;96594.16;5019744;28;20462;-72
2022/09/30 02:21:23;;;;;;;5.87;4.97;;;;;;;12.63;63.27;96597.41;5027874;28;20438;-73
2022/09/30 02:23:51;;;;;;;6.70;4.97;;;;;;;12.59;63.07;96602.22;5015143;28;20458;-72
2022/09/30 02:26:23;;;;;;;7.00;4.70;;;;;;;12.54;63.08;96601.94;5047980;28;20471;-71
2022/09/30 02:29:04;;;;;;;9.83;4.93;;;;;;;12.53;63.34;96607.38;5018217;28;20549;-73
2022/09/30 02:31:32;;;;;;;13.63;5.30;;;;;;;12.53;63.59;96608.22;5025409;28;20426;-71
2022/09/30 02:34:04;;;;;;;6.80;4.60;;;;;;;12.55;63.29;96605.41;5011370;28;20868;-72
2022/09/30 02:36:50;;;;;;;5.90;4.90;;;;;;;12.54;63.71;96609.00;5021697;28;20453;-74
2022/09/30 02:39:24;;;;;;;9.13;5.03;;;;;;;12.57;63.56;96609.47;5014133;28;20424;-73
2022/09/30 02:42:01;;;;;;;5.47;4.83;;;;;;;12.58;63.54;96616.34;5030073;28;20428;-72
2022/09/30 02:44:27;;;;;;;6.50;5.13;;;;;;;12.59;63.53;96614.56;5027779;28;20478;-72
2022/09/30 02:46:59;;;;;;;5.53;4.80;;;;;;;12.57;63.57;96614.72;5024689;28;21174;-72
2022/09/30 02:49:36;;;;;;;7.90;4.37;;;;;;;12.50;63.79;96618.25;5046975;28;20602;-72
2022/09/30 02:52:20;;;;;;;4.30;3.90;;;;;;;12.52;63.65;96616.25;5024163;28;20427;-72
2022/09/30 02:55:04;;;;;;;8.73;4.73;;;;;;;12.50;63.64;96623.50;5027121;28;20456;-73
2022/09/30 02:57:37;;;;;;;5.13;4.50;;;;;;;12.44;63.47;96615.34;5020612;28;20447;-72
2022/09/30 03:00:04;;;;;;;5.00;4.50;;;;;;;12.39;63.71;96627.38;5022004;28;20432;-72
2022/09/30 03:02:29;;;;;;;7.00;4.90;;;;;;;12.43;63.75;96632.09;5014909;28;20416;-73
2022/09/30 03:04:54;;;;;;;8.10;5.47;;;;;;;12.43;63.92;96634.75;5042683;28;20422;-73
2022/09/30 03:07:20;;;;;;;6.77;5.13;;;;;;;12.41;63.89;96631.47;5026708;28;20746;-73
2022/09/30 03:09:45;;;;;;;6.37;4.93;;;;;;;12.43;64.08;96634.75;5015541;28;20212;-74
2022/09/30 03:12:31;;;;;;;6.33;5.20;;;;;;;12.44;64.01;96631.13;5025029;28;20267;-74
2022/09/30 03:15:31;;;;;;;9.87;5.00;;;;;;;12.40;63.97;96629.81;5033932;28;20207;-75
2022/09/30 03:18:14;;;;;;;5.30;4.50;;;;;;;12.41;63.80;96634.09;5012956;28;20458;-73
2022/09/30 03:21:30;;;;;;;7.90;4.70;;;;;;;12.39;63.92;96643.16;5017069;28;20516;-73
2022/09/30 03:24:33;;;;;;;5.50;4.37;;;;;;;12.38;64.10;96644.16;5023723;28;20437;-74
2022/09/30 03:27:15;;;;;;;7.20;4.80;;;;;;;12.11;64.20;96641.06;5009068;28;20484;-74
2022/09/30 03:30:00;;;;;;;6.90;5.00;;;;;;;12.07;64.75;96648.50;5026112;28;20999;-73
2022/09/30 03:32:58;;;;;;;8.70;4.87;;;;;;;12.11;64.79;96647.13;5025719;28;20909;-75
2022/09/30 03:35:23;;;;;;;5.73;4.93;;;;;;;12.19;65.14;96651.50;5031009;28;20443;-73
2022/09/30 03:38:13;;;;;;;6.40;5.00;;;;;;;12.18;65.08;96651.69;5028545;28;20450;-72
2022/09/30 03:41:03;;;;;;;18.37;5.30;;;;;;;12.25;64.66;96652.59;5033582;28;20186;-73
2022/09/30 03:43:36;;;;;;;7.73;5.00;;;;;;;12.30;64.48;96658.16;5034750;28;20571;-74
2022/09/30 03:46:29;;;;;;;5.27;4.87;;;;;;;12.26;64.27;96660.34;5017946;28;20427;-74
2022/09/30 03:49:01;;;;;;;7.33;5.23;;;;;;;12.31;64.53;96657.19;5020620;28;20446;-71
2022/09/30 03:51:28;;;;;;;7.63;5.10;;;;;;;12.32;64.24;96656.19;5045583;28;20464;-74
2022/09/30 03:53:55;;;;;;;6.60;5.17;;;;;;;12.33;64.38;96657.81;5038022;28;20448;-72
2022/09/30 03:56:25;;;;;;;9.57;6.27;;;;;;;12.34;64.59;96656.84;5034684;28;20492;-73
2022/09/30 03:58:51;;;;;;;7.60;6.00;;;;;;;12.38;64.54;96662.53;5024889;28;20464;-74
2022/09/30 04:01:20;;;;;;;9.37;5.10;;;;;;;12.38;64.18;96665.16;5034524;28;20426;-73
2022/09/30 04:03:51;;;;;;;10.53;5.53;;;;;;;12.37;64.30;96664.34;5042690;28;20183;-73
2022/09/30 04:06:18;;;;;;;7.13;5.93;;;;;;;12.36;64.29;96670.59;5039299;28;20432;-73
2022/09/30 04:08:43;;;;;;;11.87;8.03;;;;;;;12.37;64.20;96682.72;5044364;28;20790;-74
2022/09/30 04:11:09;;;;;;;8.73;7.27;;;;;;;12.37;64.15;96687.97;5039155;28;20421;-74
2022/09/30 04:13:35;;;;;;;6.70;5.97;;;;;;;12.38;64.03;96691.44;5047377;28;20258;-73
2022/09/30 04:16:00;;;;;;;10.20;5.40;;;;;;;12.35;64.41;96689.97;5025191;28;20564;-74
2022/09/30 04:18:25;;;;;;;5.80;5.20;;;;;;;12.33;64.13;96699.84;5043741;28;20566;-75
2022/09/30 04:20:51;;;;;;;7.30;5.90;;;;;;;12.35;64.55;96695.22;5037021;28;20274;-73
2022/09/30 04:23:16;;;;;;;5.93;5.33;;;;;;;12.37;64.70;96701.13;5043236;28;20662;-73
2022/09/30 04:25:42;;;;;;;10.17;6.50;;;;;;;12.38;64.53;96692.25;5047656;28;20285;-74
2022/09/30 04:28:07;;;;;;;10.77;6.57;;;;;;;12.39;64.56;96683.38;5037079;28;20210;-73
2022/09/30 04:30:33;;;;;;;7.87;6.23;;;;;;;12.43;64.64;96686.47;5029957;28;20298;-73
2022/09/30 04:32:58;;;;;;;8.30;6.40;;;;;;;12.45;64.56;96692.38;5033230;28;20273;-73
2022/09/30 04:35:25;;;;;;;8.83;6.77;;;;;;;12.46;64.26;96691.38;5036053;28;20230;-73
2022/09/30 04:37:50;;;;;;;8.00;7.03;;;;;;;12.41;64.38;96689.28;5032581;28;20318;-73
2022/09/30 04:40:16;;;;;;;11.93;6.30;;;;;;;12.37;64.01;96687.97;5029539;28;20419;-73
2022/09/30 04:42:42;;;;;;;7.43;5.37;;;;;;;12.35;64.16;96702.31;5039741;28;20187;-72
2022/09/30 04:45:11;;;;;;;5.53;4.90;;;;;;;12.25;63.98;96694.66;5027596;28;20594;-73
2022/09/30 04:47:37;;;;;;;12.47;5.33;;;;;;;12.24;64.10;96706.97;5039942;28;20203;-74
2022/09/30 04:50:04;;;;;;;6.33;4.87;;;;;;;12.18;63.77;96698.97;5040052;28;20461;-74
2022/09/30 04:52:29;;;;;;;8.80;5.10;;;;;;;12.19;63.68;96711.13;5032329;28;20217;-74
2022/09/30 04:54:55;;;;;;;5.33;4.83;;;;;;;12.07;63.71;96714.16;5022682;28;20751;-74
2022/09/30 04:57:20;;;;;;;9.03;5.23;;;;;;;12.09;63.62;96721.84;5016886;28;20206;-72
2022/09/30 04:59:45;;;;;;;5.60;5.03;;;;;;;12.04;64.00;96725.00;5016616;28;20189;-71
2022/09/30 05:02:12;;;;;;;10.70;5.57;;;;;;;12.00;64.08;96730.78;5034278;28;20280;-72
2022/09/30 05:04:38;;;;;;;8.37;6.07;;;;;;;12.02;64.02;96732.22;5031593;28;20179;-73
2022/09/30 05:07:07;;;;;;;9.97;6.00;;;;;;;11.95;64.44;96736.50;5022553;28;20454;-72
2022/09/30 05:09:34;;;;;;;9.57;6.20;;;;;;;12.00;64.71;96739.47;5027349;28;20202;-72
2022/09/30 05:12:02;;;;;;;9.80;6.13;;;;;;;12.03;64.16;96743.56;5034406;28;20421;-72
2022/09/30 05:14:28;;;;;;;11.63;5.73;;;;;;;12.01;64.63;96735.84;5029763;28;20437;-76
2022/09/30 05:16:54;;;;;;;11.57;6.00;;;;;;;11.98;64.17;96744.06;5027286;28;20447;-75
2022/09/30 05:19:19;;;;;;;8.10;5.20;;;;;;;11.93;64.24;96746.38;5037134;28;20514;-74
2022/09/30 05:21:45;;;;;;;10.33;5.90;;;;;;;11.87;63.87;96749.66;5020781;28;20223;-76
2022/09/30 05:24:11;;;;;;;9.03;6.20;;;;;;;11.93;64.29;96754.25;5030830;28;20176;-76
2022/09/30 05:26:36;;;;;;;8.97;7.10;;;;;;;11.88;63.99;96749.50;5024606;28;20200;-76
2022/09/30 05:29:02;;;;;;;9.17;6.87;;;;;;;11.80;64.09;96750.38;5017679;28;20210;-75
2022/09/30 05:31:27;;;;;;;9.70;6.70;;;;;;;11.73;64.23;96752.03;5027477;28;20269;-75
2022/09/30 05:33:54;;;;;;;10.50;6.93;;;;;;;11.81;63.87;96751.16;5020303;28;20646;-75
2022/09/30 05:36:19;;;;;;;8.07;6.27;;;;;;;11.75;63.90;96757.94;5024594;28;20207;-75
2022/09/30 05:38:45;;;;;;;8.40;7.20;;;;;;;11.77;63.78;96766.44;5029296;28;20516;-74
2022/09/30 05:41:13;;;;;;;16.70;6.70;;;;;;;11.76;63.62;96762.19;5037720;28;20211;-74
2022/09/30 05:43:41;;;;;;;11.93;6.23;;;;;;;11.78;63.86;96765.47;5037783;28;20179;-74
2022/09/30 05:46:06;;;;;;;9.23;6.63;;;;;;;11.91;64.12;96762.28;5024977;28;20431;-75
2022/09/30 05:48:33;;;;;;;14.83;7.57;;;;;;;11.87;63.87;96768.03;5043740;28;20448;-74
2022/09/30 05:51:00;;;;;;;12.20;6.67;;;;;;;11.94;63.98;96767.19;5049864;28;20202;-75
2022/09/30 05:53:26;;;;;;;7.50;6.70;;;;;;;12.07;63.71;96761.44;5044356;28;20410;-76
2022/09/30 05:55:52;;;;;;;7.70;6.90;;;;;;;12.11;63.52;96762.69;5045423;28;20495;-75
2022/09/30 05:58:17;;;;;;;8.03;6.30;;;;;;;12.25;63.11;96760.31;5038545;28;20841;-75
2022/09/30 06:00:44;;;;;;;10.10;6.13;;;;;;;12.34;62.97;96767.19;5043525;28;20190;-75
2022/09/30 06:03:10;;;;;;;12.37;6.57;;;;;;;12.38;63.07;96765.81;5023804;28;20263;-74
2022/09/30 06:05:36;;;;;;;9.43;6.77;;;;;;;12.46;62.93;96774.66;5028883;28;20501;-75
2022/09/30 06:08:02;;;;;;;9.20;6.80;;;;;;;12.54;62.38;96779.84;5028129;28;20640;-74
2022/09/30 06:10:28;;;;;;;9.63;7.13;;;;;;;12.59;62.38;96786.22;5026346;28;20459;-75
2022/09/30 06:12:53;;;;;;;6.67;5.67;;;;;;;12.75;63.34;96769.50;5027787;28;20433;-74
2022/09/30 06:15:19;;;;;;;11.33;7.63;;;;;;;12.95;62.57;96776.91;5029071;28;20431;-75
2022/09/30 06:17:45;;;;;;;14.67;7.37;;;;;;;12.98;61.75;96781.00;5026547;28;20203;-73
2022/09/30 06:20:11;;;;;;;10.20;7.17;;;;;;;13.02;62.43;96784.91;5036489;28;20213;-75
2022/09/30 06:22:37;;;;;;;11.47;8.30;;;;;;;13.15;62.36;96779.03;5028035;28;20460;-75
2022/09/30 06:25:04;;;;;;;14.90;7.90;;;;;;;13.28;62.15;96784.50;5029953;28;20183;-73
2022/09/30 06:27:29;;;;;;;10.73;7.40;;;;;;;13.40;62.27;96794.59;5018020;28;20246;-74
2022/09/30 06:29:55;;;;;;;14.20;7.30;;;;;;;13.52;61.86;96794.00;5027231;28;20438;-73
2022/09/30 06:32:20;;;;;;;10.20;7.07;;;;;;;13.56;61.42;96801.50;5029483;28;20189;-75
2022/09/30 06:34:46;;;;;;;13.93;7.10;;;;;;;13.52;61.15;96807.16;5012021;28;20554;-74
2022/09/30 06:37:12;;;;;;;10.87;7.17;;;;;;;13.39;61.64;96812.19;5026668;28;20218;-73
2022/09/30 06:39:40;;;;;;;8.33;7.30;;;;;;;13.51;62.07;96812.59;5027075;28;20550;-74
2022/09/30 06:42:06;;;;;;;14.10;8.40;;;;;;;13.65;62.05;96810.97;5036134;28;20934;-74
2022/09/30 06:44:32;;;;;;;14.13;8.67;;;;;;;13.76;61.41;96820.22;5034106;28;21038;-74
2022/09/30 06:46:59;;;;;;;11.77;8.97;;;;;;;13.84;61.37;96812.25;5036985;28;20450;-75
2022/09/30 06:49:25;;;;;;;9.73;8.70;;;;;;;13.95;61.44;96818.84;5037881;28;20264;-75
2022/09/30 06:51:51;;;;;;;13.70;7.70;;;;;;;14.00;61.13;96811.22;5043612;28;20419;-73
2022/09/30 06:54:19;;;;;;;11.27;8.17;;;;;;;14.06;61.39;96818.38;5036698;28;20427;-74
2022/09/30 06:56:46;;;;;;;12.87;8.80;;;;;;;14.05;61.12;96832.56;5021250;28;20200;-74
2022/09/30 06:59:11;;;;;;;14.23;8.10;;;;;;;14.07;61.18;96824.47;5020054;28;20511;-74
2022/09/30 07:01:37;;;;;;;13.50;8.53;;;;;;;14.01;60.86;96826.03;5023412;28;20567;-74
2022/09/30 07:04:08;;;;;;;13.70;9.50;;;;;;;13.86;61.22;96833.94;5032548;28;20185;-74
2022/09/30 07:06:33;;;;;;;20.73;10.60;;;;;;;13.83;61.34;96834.31;5020512;28;20474;-72
2022/09/30 07:08:59;;;;;;;13.37;9.57;;;;;;;13.95;61.56;96839.94;5030219;28;20451;-72
2022/09/30 07:11:24;;;;;;;14.70;9.53;;;;;;;14.04;61.49;96843.28;5021140;28;20258;-72
2022/09/30 07:13:50;;;;;;;18.13;10.83;;;;;;;14.10;61.16;96839.94;5035527;28;20265;-72
2022/09/30 07:16:17;;;;;;;15.33;11.50;;;;;;;14.08;60.79;96842.72;5018980;28;20176;-74
2022/09/30 07:18:44;;;;;;;16.27;10.97;;;;;;;14.01;61.18;96843.66;5029807;28;20257;-74
2022/09/30 07:21:12;;;;;;;21.43;12.07;;;;;;;14.04;61.41;96848.56;5027565;28;20418;-74
2022/09/30 07:23:39;;;;;;;18.63;11.33;;;;;;;13.95;61.58;96853.94;5027016;28;20434;-72
2022/09/30 07:26:06;;;;;;;16.00;11.10;;;;;;;14.02;61.77;96853.19;5026976;28;20430;-72
2022/09/30 07:28:34;;;;;;;15.30;9.87;;;;;;;14.06;61.39;96862.38;5021258;28;20437;-73
2022/09/30 07:31:10;;;;;;;17.10;9.57;;;;;;;14.09;61.80;96865.44;5029658;28;20424;-74
2022/09/30 07:33:39;;;;;;;13.20;9.97;;;;;;;14.15;61.64;96868.38;5022758;28;20413;-74
2022/09/30 07:36:07;;;;;;;15.53;10.40;;;;;;;14.12;61.30;96866.91;5028852;28;20439;-73
2022/09/30 07:38:36;;;;;;;14.33;10.80;;;;;;;14.07;61.42;96861.38;5031309;28;20456;-74
2022/09/30 07:41:07;;;;;;;16.27;11.30;;;;;;;14.12;61.71;96864.25;5035049;28;20456;-74
2022/09/30 07:43:37;;;;;;;23.17;11.40;;;;;;;14.13;61.75;96863.25;5017872;28;20427;-72
2022/09/30 07:46:07;;;;;;;22.03;11.40;;;;;;;14.19;61.53;96866.97;5024138;28;20422;-73
2022/09/30 07:48:43;;;;;;;18.93;11.53;;;;;;;14.21;61.62;96878.16;5014951;28;20471;-74
2022/09/30 07:51:14;;;;;;;15.53;10.00;;;;;;;14.20;61.85;96876.53;5015526;28;20519;-74
2022/09/30 07:53:40;;;;;;;12.47;10.30;;;;;;;14.27;61.75;96877.44;5009779;28;20420;-75
2022/09/30 07:56:07;;;;;;;17.67;11.80;;;;;;;14.21;61.10;96886.06;5011315;28;20415;-73
2022/09/30 07:58:32;;;;;;;18.87;11.73;;;;;;;14.25;60.46;96889.97;5021299;28;20443;-72
2022/09/30 08:00:58;;;;;;;17.30;13.27;;;;;;;14.14;60.54;96888.63;5027411;28;20436;-74
2022/09/30 08:03:23;;;;;;;18.40;12.57;;;;;;;14.17;60.44;96892.72;5032347;28;20282;-74
2022/09/30 08:05:49;;;;;;;19.17;12.07;;;;;;;14.16;60.68;96894.53;5014623;28;20660;-74
2022/09/30 08:08:15;;;;;;;16.50;13.37;;;;;;;14.06;60.45;96894.00;5021458;28;20202;-75
2022/09/30 08:10:41;;;;;;;16.87;12.67;;;;;;;14.07;60.60;96903.53;5017762;28;20222;-73
2022/09/30 08:13:07;;;;;;;31.33;14.00;;;;;;;14.10;60.90;96908.44;5034773;28;20411;-73
2022/09/30 08:15:32;;;;;;;17.23;13.27;;;;;;;14.13;60.97;96905.41;5030747;28;20184;-71
2022/09/30 08:17:58;;;;;;;18.27;14.00;;;;;;;14.19;61.05;96909.16;5027666;28;20538;-72
2022/09/30 08:20:23;;;;;;;22.83;12.93;;;;;;;14.25;61.12;96922.41;5035089;28;20194;-74
2022/09/30 08:22:55;;;;;;;17.37;12.97;;;;;;;14.24;61.06;96918.13;5028855;28;20584;-73
2022/09/30 08:25:21;;;;;;;19.20;13.93;;;;;;;14.34;61.24;96915.22;5035611;28;20279;-72
2022/09/30 08:27:47;;;;;;;23.00;13.20;;;;;;;14.43;60.76;96918.59;5028887;28;20852;-72
2022/09/30 08:30:12;;;;;;;18.10;14.20;;;;;;;14.47;60.57;96921.69;5026443;28;20463;-72
2022/09/30 08:32:38;;;;;;;17.73;14.23;;;;;;;14.56;60.51;96929.31;5023861;28;20177;-72
2022/09/30 08:35:05;;;;;;;18.53;13.87;;;;;;;14.73;60.65;96919.38;5023705;28;20284;-72
2022/09/30 08:37:30;;;;;;;16.53;13.70;;;;;;;14.84;59.74;96926.00;5024716;28;20744;-71
2022/09/30 08:39:55;;;;;;;21.97;13.93;;;;;;;14.77;58.65;96925.09;5023614;28;20464;-73
2022/09/30 08:42:24;;;;;;;15.37;13.67;;;;;;;14.75;59.77;96916.56;5032420;28;20198;-72
2022/09/30 08:44:49;;;;;;;19.00;14.90;;;;;;;14.94;59.35;96919.59;5022423;28;20212;-72
2022/09/30 08:47:59;;;;;;;20.80;14.30;;;;;;;15.23;59.12;96915.22;5034974;28;20525;-72
2022/09/30 08:50:33;;;;;;;19.30;14.00;;;;;;;15.47;58.36;96924.56;5046078;28;20234;-72
2022/09/30 08:53:02;;;;;;;19.70;13.37;;;;;;;15.75;57.91;96927.22;5043638;28;20421;-73
2022/09/30 08:55:34;;;;;;;20.37;14.33;;;;;;;15.92;56.58;96932.25;5040061;28;20425;-72
2022/09/30 08:58:01;;;;;;;19.43;13.90;;;;;;;16.02;56.64;96924.78;5013109;28;20432;-72
2022/09/30 09:00:27;;;;;;;21.50;13.90;;;;;;;16.17;55.55;96923.88;5026267;28;20445;-72
2022/09/30 09:02:55;;;;;;;16.50;12.57;;;;;;;16.47;55.44;96926.25;5034769;28;20867;-73
2022/09/30 09:05:45;;;;;;;18.23;14.40;;;;;;;16.86;54.45;96922.94;5028031;28;20193;-71
2022/09/30 09:08:17;;;;;;;16.87;12.80;;;;;;;17.24;53.60;96924.28;5018933;28;20446;-73
2022/09/30 09:10:45;;;;;;;17.90;12.63;;;;;;;17.65;52.29;96928.56;5019553;28;20990;-71
2022/09/30 09:13:35;;;;;;;12.00;10.70;;;;;;;18.13;50.16;96921.44;5030503;28;20896;-72
2022/09/30 09:16:24;;;;;;;14.63;10.43;;;;;;;18.50;49.70;96921.72;5025422;28;20416;-70
2022/09/30 09:19:11;;;;;;;10.73;9.30;;;;;;;18.65;48.83;96929.41;5028103;28;20738;-73
2022/09/30 09:21:46;;;;;;;13.40;8.30;;;;;;;18.88;48.73;96920.13;5030483;28;20478;-72
2022/09/30 09:24:19;;;;;;;11.80;9.90;;;;;;;19.15;47.83;96920.00;5033677;28;20443;-73
2022/09/30 09:26:45;;;;;;;12.70;9.77;;;;;;;18.93;47.14;96925.63;5017481;28;20487;-71
2022/09/30 09:29:38;;;;;;;10.10;8.77;;;;;;;18.97;47.37;96926.84;5019205;28;20444;-72
2022/09/30 09:32:16;;;;;;;9.37;7.93;;;;;;;19.33;47.36;96927.22;5036276;28;20439;-72
2022/09/30 09:34:42;;;;;;;11.23;7.33;;;;;;;19.59;45.80;96928.06;5028974;28;20451;-72
2022/09/30 09:37:15;;;;;;;9.57;7.87;;;;;;;19.78;45.53;96924.41;5035075;28;20430;-72
2022/09/30 09:39:52;;;;;;;16.30;7.97;;;;;;;20.12;45.61;96929.44;5034362;28;20430;-72
2022/09/30 09:42:34;;;;;;;10.23;8.30;;;;;;;20.15;45.21;96936.19;5043008;28;20423;-73
2022/09/30 09:45:27;;;;;;;9.07;7.37;;;;;;;20.24;44.71;96940.19;5021868;28;20494;-72
2022/09/30 09:47:55;;;;;;;15.53;9.20;;;;;;;20.03;43.90;96942.25;5030942;28;21012;-71
2022/09/30 09:50:39;;;;;;;8.90;8.00;;;;;;;20.16;42.91;96943.16;5048757;28;20473;-72
2022/09/30 09:53:45;;;;;;;8.37;7.50;;;;;;;20.37;42.86;96940.06;5045686;28;20437;-72
2022/09/30 09:56:17;;;;;;;12.20;8.40;;;;;;;20.62;41.40;96939.16;5040028;28;20457;-71
2022/09/30 09:59:09;;;;;;;9.40;7.67;;;;;;;20.80;41.89;96937.53;5028514;28;20436;-71
2022/09/30 10:01:37;;;;;;;13.90;8.83;;;;;;;20.67;41.73;96938.47;5022117;28;20974;-71
2022/09/30 10:04:10;;;;;;;11.87;8.90;;;;;;;20.48;42.88;96945.66;5030262;28;20441;-71
2022/09/30 10:06:45;;;;;;;11.43;10.23;;;;;;;20.25;43.12;96944.47;5026865;28;20426;-73
2022/09/30 10:09:30;;;;;;;14.17;9.20;;;;;;;20.37;43.23;96949.88;5026360;28;20520;-72
2022/09/30 10:12:05;;;;;;;14.60;7.90;;;;;;;20.65;43.06;96948.53;5038402;28;20418;-73
2022/09/30 10:14:35;;;;;;;9.80;8.63;;;;;;;20.82;41.86;96943.44;5031789;28;20491;-73
2022/09/30 10:17:03;;;;;;;16.63;8.00;;;;;;;20.83;41.51;96947.72;5032810;28;20443;-75
2022/09/30 10:19:31;;;;;;;11.87;8.20;;;;;;;20.96;41.76;96946.75;5033532;28;20437;-75
2022/09/30 10:22:10;;;;;;;16.10;7.50;;;;;;;21.12;41.62;96951.44;5017469;28;20935;-74
2022/09/30 10:24:37;;;;;;;12.80;8.70;;;;;;;21.29;41.46;96950.81;5025685;28;20506;-74
2022/09/30 10:27:03;;;;;;;12.00;8.37;;;;;;;21.33;40.87;96955.44;5045102;28;20445;-75
2022/09/30 10:29:31;;;;;;;8.30;7.23;;;;;;;21.69;40.92;96952.91;5046256;28;20489;-74
2022/09/30 10:31:58;;;;;;;12.57;8.10;;;;;;;21.81;40.26;96960.91;5036568;28;20438;-74
2022/09/30 10:34:27;;;;;;;10.70;7.43;;;;;;;21.88;39.80;96964.28;5049848;28;20437;-75
2022/09/30 10:36:53;;;;;;;12.23;7.70;;;;;;;21.92;37.96;96965.47;5041214;28;20485;-75
2022/09/30 10:39:29;;;;;;;14.47;6.93;;;;;;;22.19;38.32;96961.50;5040243;28;20430;-75
2022/09/30 10:42:06;;;;;;;8.87;6.80;;;;;;;22.09;37.63;96959.41;5042737;28;20794;-75
2022/09/30 10:44:37;;;;;;;9.77;6.10;;;;;;;22.04;37.53;96960.09;5050209;28;20947;-74
2022/09/30 10:47:02;;;;;;;10.30;6.00;;;;;;;22.33;37.41;96954.88;5048734;28;20448;-76
2022/09/30 10:49:47;;;;;;;10.73;6.00;;;;;;;22.67;36.67;96954.28;5042670;28;20546;-76
2022/09/30 10:52:26;;;;;;;8.43;5.50;;;;;;;22.98;36.16;96954.84;5046492;28;20197;-76
2022/09/30 10:54:57;;;;;;;7.17;4.60;;;;;;;23.22;35.08;96949.44;5051006;28;20774;-76
2022/09/30 10:57:32;;;;;;;6.03;4.30;;;;;;;23.36;34.80;96948.09;5051510;28;20508;-76
2022/09/30 11:00:05;;;;;;;6.13;4.17;;;;;;;23.22;34.04;96949.44;5052236;28;20504;-75
2022/09/30 11:02:53;;;;;;;5.50;3.80;;;;;;;23.15;34.72;96955.72;5051660;28;20417;-76
2022/09/30 11:05:26;;;;;;;7.90;4.67;;;;;;;23.19;34.42;96944.56;5050444;28;20998;-75
2022/09/30 11:08:04;;;;;;;12.37;9.97;;;;;;;23.24;33.80;96956.19;5044596;28;20540;-75
2022/09/30 11:10:39;;;;;;;11.13;9.00;;;;;;;23.52;32.88;96948.34;5030495;28;20458;-75
2022/09/30 11:13:11;;;;;;;11.67;5.20;;;;;;;23.37;33.67;96955.06;5047016;28;20513;-74
2022/09/30 11:16:01;;;;;;;4.93;4.23;;;;;;;23.53;33.58;96945.44;5047569;28;20451;-75
2022/09/30 11:18:53;;;;;;;6.07;4.13;;;;;;;23.61;32.80;96938.88;5050499;28;20460;-73
2022/09/30 11:21:27;;;;;;;5.13;4.47;;;;;;;23.45;32.46;96946.63;5028564;28;21096;-76
2022/09/30 11:23:59;;;;;;;4.50;3.90;;;;;;;23.51;33.09;96952.09;5050775;28;20540;-75
2022/09/30 11:26:47;;;;;;;5.90;3.83;;;;;;;23.75;32.66;96952.75;5049977;28;20426;-76
2022/09/30 11:29:33;;;;;;;3.50;3.20;;;;;;;23.72;30.66;96953.22;5051199;28;20960;-75
2022/09/30 11:32:31;;;;;;;3.43;3.13;;;;;;;23.44;31.28;96962.94;5031454;28;20418;-75
2022/09/30 11:35:19;;;;;;;2.93;2.60;;;;;;;23.88;31.20;96959.63;5049100;28;20826;-75
2022/09/30 11:38:00;;;;;;;2.87;2.37;;;;;;;23.85;30.70;96965.47;5044076;28;20437;-75
2022/09/30 11:40:37;;;;;;;5.53;2.70;;;;;;;23.75;30.30;96958.91;5048763;28;20402;-74
2022/09/30 11:43:25;;;;;;;4.90;3.20;;;;;;;23.89;31.14;96956.69;5047635;28;20413;-75
2022/09/30 11:45:55;;;;;;;3.10;2.53;;;;;;;24.21;30.77;96955.31;5046898;28;20430;-74
2022/09/30 11:48:56;;;;;;;3.10;2.80;;;;;;;24.13;30.31;96958.41;5040930;28;20509;-74
2022/09/30 11:51:29;;;;;;;4.87;2.80;;;;;;;24.37;30.09;96957.16;5047582;28;20880;-74